Daytona Beach, Florida
Current Conditions -  °F | °C
As of 4:53 PM on Monday 24 Nov 2014 (Local Time) from KDAB Reporting Station
Broken Clouds Broken Clouds  
Wind Chill: 29°   Ceiling: 25000
Heat Index: 31°   Visibility: 10mi
Dew Point: 21°   Wind: 7mph
Humidity: 61%   Direction: 200°SSW
Pressure: 29.92"   Gusts: NA
Location:  29.2°N, 81.04°W
Report Text: KDAB 242153Z 20006KT 10SM FEW040 BKN250 29/21 A2992 RMK AO2 SLP133 T02890206
Loading
Personal Weather Stations






























Interactive Weather Map New forecast layout! Learn more

10-Day Weather Forecast

Advertisements
Track Severe Weather on mobile